Time;durP1;ratioP1;P1;durP2;ratioP2;P2;SDS_P1;SDS_P2;PMS_P1;PMS_P2;Temp;Humidity;BMP_temperature;BMP_pressure;BME280_temperature;BME280_humidity;BME280_pressure;Samples;Min_cycle;Max_cycle;Signal;HPM_P1;HPM_P2
2023/08/05 00:01:50;;;;;;;;;;;25.70;60.70;;;;;;5097697;28;19931;-55
2023/08/05 00:04:17;;;;;;;;;;;25.70;60.80;;;;;;5097262;28;20433;-55
2023/08/05 00:06:44;;;;;;;;;;;25.70;60.70;;;;;;5097360;28;19923;-53
2023/08/05 00:09:11;;;;;;;;;;;25.70;60.70;;;;;;5097191;28;19924;-54
2023/08/05 00:11:38;;;;;;;;;;;25.70;60.70;;;;;;5096809;28;19924;-52
2023/08/05 00:14:05;;;;;;;;;;;25.70;60.70;;;;;;5097131;28;19931;-52
2023/08/05 00:16:32;;;;;;;;;;;25.70;60.70;;;;;;5097347;28;19980;-54
2023/08/05 00:18:59;;;;;;;;;;;25.70;60.80;;;;;;5095610;28;20015;-52
2023/08/05 00:21:26;;;;;;;;;;;25.60;60.70;;;;;;5095348;28;19968;-54
2023/08/05 00:23:53;;;;;;;;;;;25.60;60.70;;;;;;5096448;28;19924;-50
2023/08/05 00:26:20;;;;;;;;;;;25.60;60.70;;;;;;5097271;28;19928;-50
2023/08/05 00:28:47;;;;;;;;;;;25.60;60.70;;;;;;5097403;28;19981;-52
2023/08/05 00:31:14;;;;;;;;;;;25.60;60.70;;;;;;5095997;28;19924;-52
2023/08/05 00:33:41;;;;;;;;;;;25.60;60.70;;;;;;5096893;28;19928;-53
2023/08/05 00:36:08;;;;;;;;;;;25.70;60.80;;;;;;5096729;28;20388;-54
2023/08/05 00:38:35;;;;;;;;;;;25.60;60.70;;;;;;5097052;28;20017;-50
2023/08/05 00:41:03;;;;;;;;;;;25.60;60.70;;;;;;5097170;28;19951;-53
2023/08/05 00:43:30;;;;;;;;;;;25.60;60.70;;;;;;5096796;28;19924;-54
2023/08/05 00:45:59;;;;;;;;;;;25.60;60.70;;;;;;5096694;28;20015;-53
2023/08/05 00:48:26;;;;;;;;;;;25.60;60.70;;;;;;5096599;28;20019;-57
2023/08/05 00:50:56;;;;;;;;;;;25.60;60.70;;;;;;5096493;28;20019;-55
2023/08/05 00:53:23;;;;;;;;;;;25.60;60.70;;;;;;5096398;28;20439;-52
2023/08/05 00:55:51;;;;;;;;;;;25.70;60.80;;;;;;5096265;28;19977;-54
2023/08/05 00:58:22;;;;;;;;;;;25.60;60.70;;;;;;5096673;28;19928;-54
2023/08/05 01:00:49;;;;;;;;;;;25.60;60.70;;;;;;5095549;28;19924;-54
2023/08/05 01:03:16;;;;;;;;;;;25.60;60.70;;;;;;5096126;28;19967;-52
2023/08/05 01:05:43;;;;;;;;;;;25.60;60.70;;;;;;5096344;28;20018;-54
2023/08/05 01:08:10;;;;;;;;;;;25.60;60.70;;;;;;5095926;28;20015;-55
2023/08/05 01:10:38;;;;;;;;;;;25.60;60.70;;;;;;5094945;28;19969;-51
2023/08/05 01:13:05;;;;;;;;;;;25.60;60.70;;;;;;5096301;28;20011;-53
2023/08/05 01:15:32;;;;;;;;;;;25.60;60.70;;;;;;5095447;28;20010;-53
2023/08/05 01:18:01;;;;;;;;;;;25.60;60.70;;;;;;5095992;28;20399;-52
2023/08/05 01:20:32;;;;;;;;;;;25.70;60.70;;;;;;5095203;28;19928;-55
2023/08/05 01:23:07;;;;;;;;;;;25.60;60.60;;;;;;5095740;28;19972;-53
2023/08/05 01:25:34;;;;;;;;;;;25.70;60.70;;;;;;5095659;28;19979;-55
2023/08/05 01:28:02;;;;;;;;;;;25.70;60.60;;;;;;5096057;28;19994;-50
2023/08/05 01:30:30;;;;;;;;;;;25.60;60.60;;;;;;5095425;28;19973;-50
2023/08/05 01:32:58;;;;;;;;;;;25.70;60.60;;;;;;5096122;28;20266;-53
2023/08/05 01:35:25;;;;;;;;;;;25.70;60.60;;;;;;5095958;28;19924;-55
2023/08/05 01:37:52;;;;;;;;;;;25.70;60.60;;;;;;5095563;28;20023;-54
2023/08/05 01:40:19;;;;;;;;;;;25.70;60.50;;;;;;5093836;28;20015;-56
2023/08/05 01:42:46;;;;;;;;;;;25.70;60.50;;;;;;5095590;28;19964;-55
2023/08/05 01:45:13;;;;;;;;;;;25.70;60.50;;;;;;5094851;28;20022;-53
2023/08/05 01:47:40;;;;;;;;;;;25.70;60.50;;;;;;5094560;28;19928;-55
2023/08/05 01:50:07;;;;;;;;;;;25.70;60.50;;;;;;5094823;28;19924;-53
2023/08/05 01:52:34;;;;;;;;;;;25.70;60.50;;;;;;5095395;28;20330;-55
2023/08/05 01:55:01;;;;;;;;;;;25.70;60.50;;;;;;5095587;28;19924;-53
2023/08/05 01:57:28;;;;;;;;;;;25.70;60.50;;;;;;5095496;28;20031;-53
2023/08/05 01:59:55;;;;;;;;;;;25.70;60.50;;;;;;5095347;28;19924;-55
2023/08/05 02:02:22;;;;;;;;;;;25.70;60.50;;;;;;5095468;28;19927;-52
2023/08/05 02:04:49;;;;;;;;;;;25.70;60.50;;;;;;5095093;28;19954;-52
2023/08/05 02:07:16;;;;;;;;;;;25.70;60.50;;;;;;5095435;28;19959;-52
2023/08/05 02:09:44;;;;;;;;;;;25.70;60.60;;;;;;5095007;28;19959;-54
2023/08/05 02:12:11;;;;;;;;;;;25.70;60.60;;;;;;5095171;28;19924;-51
2023/08/05 02:14:38;;;;;;;;;;;25.60;60.50;;;;;;5095409;28;19924;-52
2023/08/05 02:17:05;;;;;;;;;;;25.60;60.50;;;;;;5095208;28;19924;-54
2023/08/05 02:19:32;;;;;;;;;;;25.60;60.50;;;;;;5094728;28;19924;-54
2023/08/05 02:21:59;;;;;;;;;;;25.60;60.50;;;;;;5094544;28;19924;-52
2023/08/05 02:24:26;;;;;;;;;;;25.70;60.60;;;;;;5095177;28;19971;-55
2023/08/05 02:26:53;;;;;;;;;;;25.60;60.50;;;;;;5094922;28;19928;-55
2023/08/05 02:29:20;;;;;;;;;;;25.60;60.50;;;;;;5094539;28;20403;-54
2023/08/05 02:31:46;;;;;;;;;;;25.60;60.50;;;;;;5094384;28;19924;-55
2023/08/05 02:34:13;;;;;;;;;;;25.60;60.50;;;;;;5094549;28;20035;-51
2023/08/05 02:36:40;;;;;;;;;;;25.60;60.60;;;;;;5094901;28;19924;-54
2023/08/05 02:39:07;;;;;;;;;;;25.60;60.60;;;;;;5094751;28;19928;-54
2023/08/05 02:41:34;;;;;;;;;;;25.60;60.60;;;;;;5094286;28;20026;-53
2023/08/05 02:44:01;;;;;;;;;;;25.60;60.50;;;;;;5094416;28;20015;-55
2023/08/05 02:46:28;;;;;;;;;;;25.60;60.50;;;;;;5094295;28;19924;-52
2023/08/05 02:48:55;;;;;;;;;;;25.60;60.50;;;;;;5094615;28;19959;-55
2023/08/05 02:51:22;;;;;;;;;;;25.60;60.50;;;;;;5094203;28;19930;-55
2023/08/05 02:53:49;;;;;;;;;;;25.60;60.50;;;;;;5094124;28;19974;-55
2023/08/05 02:56:16;;;;;;;;;;;25.60;60.50;;;;;;5094111;28;19933;-55
2023/08/05 02:58:43;;;;;;;;;;;25.60;60.50;;;;;;5094521;28;19925;-53
2023/08/05 03:01:10;;;;;;;;;;;25.60;60.50;;;;;;5092965;28;19931;-53
2023/08/05 03:03:37;;;;;;;;;;;25.60;60.50;;;;;;5092620;28;20456;-55
2023/08/05 03:06:04;;;;;;;;;;;25.60;60.50;;;;;;5093994;28;19924;-54
2023/08/05 03:08:31;;;;;;;;;;;25.60;60.50;;;;;;5094083;28;19963;-53
2023/08/05 03:10:58;;;;;;;;;;;25.60;60.50;;;;;;5093426;28;19971;-53
2023/08/05 03:13:25;;;;;;;;;;;25.60;60.50;;;;;;5093853;28;20023;-52
2023/08/05 03:15:53;;;;;;;;;;;25.60;60.50;;;;;;5094154;28;19967;-54
2023/08/05 03:18:20;;;;;;;;;;;25.60;60.50;;;;;;5093836;28;19982;-54
2023/08/05 03:20:47;;;;;;;;;;;25.60;60.50;;;;;;5093418;28;20015;-54
2023/08/05 03:23:14;;;;;;;;;;;25.60;60.50;;;;;;5093789;28;20023;-55
2023/08/05 03:25:41;;;;;;;;;;;25.60;60.50;;;;;;5093492;28;19924;-54
2023/08/05 03:28:08;;;;;;;;;;;25.60;60.50;;;;;;5093660;28;20406;-54
2023/08/05 03:30:35;;;;;;;;;;;25.60;60.50;;;;;;5093593;28;19974;-54
2023/08/05 03:33:02;;;;;;;;;;;25.60;60.50;;;;;;5093328;28;19971;-54
2023/08/05 03:35:29;;;;;;;;;;;25.60;60.40;;;;;;5093623;28;20350;-54
2023/08/05 03:37:56;;;;;;;;;;;25.60;60.40;;;;;;5093701;28;19924;-55
2023/08/05 03:40:23;;;;;;;;;;;25.60;60.30;;;;;;5093599;28;20411;-54
2023/08/05 03:42:50;;;;;;;;;;;25.70;60.40;;;;;;5093743;28;19971;-55
2023/08/05 03:45:16;;;;;;;;;;;25.70;60.40;;;;;;5093117;28;20361;-54
2023/08/05 03:47:43;;;;;;;;;;;25.70;60.40;;;;;;5093590;28;20367;-55
2023/08/05 03:50:10;;;;;;;;;;;25.70;60.30;;;;;;5092923;28;20369;-54
2023/08/05 03:52:38;;;;;;;;;;;25.70;60.30;;;;;;5093667;28;19993;-55
2023/08/05 03:55:07;;;;;;;;;;;25.70;60.30;;;;;;5093911;28;19924;-54
2023/08/05 03:57:34;;;;;;;;;;;25.70;60.20;;;;;;5093719;28;20342;-55
2023/08/05 04:00:01;;;;;;;;;;;25.70;60.20;;;;;;5092825;28;19974;-55
2023/08/05 04:02:29;;;;;;;;;;;25.70;60.20;;;;;;5093506;28;19932;-53
2023/08/05 04:04:56;;;;;;;;;;;25.70;60.10;;;;;;5093148;28;20369;-56
2023/08/05 04:07:24;;;;;;;;;;;25.70;60.20;;;;;;5093222;28;20376;-54
2023/08/05 04:09:53;;;;;;;;;;;25.70;60.10;;;;;;5093064;28;19928;-54
2023/08/05 04:12:20;;;;;;;;;;;25.70;60.20;;;;;;5093576;28;19947;-55
2023/08/05 04:14:47;;;;;;;;;;;25.70;60.20;;;;;;5093138;28;19924;-55
2023/08/05 04:17:14;;;;;;;;;;;25.70;60.20;;;;;;5093185;28;19928;-55
2023/08/05 04:19:42;;;;;;;;;;;25.70;60.20;;;;;;5093250;28;19923;-54
2023/08/05 04:22:09;;;;;;;;;;;25.70;60.20;;;;;;5093558;28;19979;-55
2023/08/05 04:24:36;;;;;;;;;;;25.70;60.20;;;;;;5093260;28;19924;-54
2023/08/05 04:27:04;;;;;;;;;;;25.70;60.20;;;;;;5093259;28;19924;-53
2023/08/05 04:29:31;;;;;;;;;;;25.70;60.20;;;;;;5093289;28;19981;-55
2023/08/05 04:31:58;;;;;;;;;;;25.70;60.20;;;;;;5092655;28;19924;-52
2023/08/05 04:34:25;;;;;;;;;;;25.70;60.20;;;;;;5093024;28;19970;-55
2023/08/05 04:36:52;;;;;;;;;;;25.70;60.20;;;;;;5093420;28;20011;-55
2023/08/05 04:39:20;;;;;;;;;;;25.60;60.40;;;;;;5082942;28;20339;-55
2023/08/05 04:41:47;;;;;;;;;;;25.50;60.50;;;;;;5082725;28;19924;-54
2023/08/05 04:44:14;;;;;;;;;;;25.30;60.20;;;;;;5086862;28;20328;-52
2023/08/05 04:46:41;;;;;;;;;;;25.10;58.70;;;;;;5080903;28;19928;-53
2023/08/05 04:49:10;;;;;;;;;;;24.90;56.50;;;;;;5096286;28;19924;-55
2023/08/05 04:51:37;;;;;;;;;;;24.60;54.60;;;;;;5087033;28;19981;-54
2023/08/05 04:54:04;;;;;;;;;;;24.30;53.60;;;;;;5080846;28;19971;-53
2023/08/05 04:56:33;;;;;;;;;;;24.00;52.40;;;;;;5085369;28;19979;-53
2023/08/05 04:59:00;;;;;;;;;;;23.70;51.30;;;;;;5079224;28;19929;-54
2023/08/05 05:01:27;;;;;;;;;;;23.40;51.40;;;;;;5075058;28;20015;-53
2023/08/05 05:03:54;;;;;;;;;;;23.20;51.20;;;;;;5076018;28;19931;-54
2023/08/05 05:06:23;;;;;;;;;;;22.90;50.80;;;;;;5074745;28;19940;-54
2023/08/05 05:08:50;;;;;;;;;;;22.70;51.10;;;;;;5075839;28;19929;-54
2023/08/05 05:11:17;;;;;;;;;;;22.50;49.90;;;;;;5075598;28;20254;-53
2023/08/05 05:13:46;;;;;;;;;;;22.20;51.60;;;;;;5074902;28;20259;-55
2023/08/05 05:16:13;;;;;;;;;;;21.90;49.80;;;;;;5075245;28;19929;-54
2023/08/05 05:18:40;;;;;;;;;;;21.70;50.90;;;;;;5076154;28;19929;-55
2023/08/05 05:21:07;;;;;;;;;;;21.50;51.70;;;;;;5075650;28;20392;-54
2023/08/05 05:23:34;;;;;;;;;;;21.30;52.20;;;;;;5076079;28;19924;-54
2023/08/05 05:26:01;;;;;;;;;;;21.10;52.20;;;;;;5075978;28;19928;-53
2023/08/05 05:28:28;;;;;;;;;;;20.90;52.50;;;;;;5096018;28;20336;-52
2023/08/05 05:30:55;;;;;;;;;;;20.80;52.30;;;;;;5095697;28;19974;-54
2023/08/05 05:33:22;;;;;;;;;;;20.70;52.70;;;;;;5096273;28;19932;-54
2023/08/05 05:35:50;;;;;;;;;;;20.50;52.50;;;;;;5095869;28;19953;-52
2023/08/05 05:38:17;;;;;;;;;;;20.40;53.40;;;;;;5095790;28;19979;-54
2023/08/05 05:40:44;;;;;;;;;;;20.40;53.40;;;;;;5095352;28;20374;-53
2023/08/05 05:43:11;;;;;;;;;;;20.20;54.40;;;;;;5095498;28;19928;-53
2023/08/05 05:45:39;;;;;;;;;;;20.20;53.80;;;;;;5095263;28;19982;-54
2023/08/05 05:48:10;;;;;;;;;;;20.10;53.50;;;;;;5095499;28;19930;-54
2023/08/05 05:50:41;;;;;;;;;;;20.10;53.40;;;;;;5094720;28;19971;-54
2023/08/05 05:53:13;;;;;;;;;;;20.00;53.50;;;;;;5094310;28;19962;-54
2023/08/05 05:55:41;;;;;;;;;;;20.00;53.50;;;;;;5095176;28;19956;-52
2023/08/05 05:58:08;;;;;;;;;;;19.90;52.70;;;;;;5094789;28;19946;-54
2023/08/05 06:00:39;;;;;;;;;;;19.70;53.70;;;;;;5094846;28;19977;-54
2023/08/05 06:03:06;;;;;;;;;;;19.60;54.60;;;;;;5095489;28;20354;-54
2023/08/05 06:05:33;;;;;;;;;;;19.50;56.00;;;;;;5093703;28;19924;-54
2023/08/05 06:08:00;;;;;;;;;;;19.40;57.50;;;;;;5094768;28;19959;-54
2023/08/05 06:10:27;;;;;;;;;;;19.20;56.70;;;;;;5094462;28;19928;-54
2023/08/05 06:12:56;;;;;;;;;;;19.20;59.20;;;;;;5094715;28;19975;-53
2023/08/05 06:15:23;;;;;;;;;;;19.10;56.10;;;;;;5095139;28;19931;-54
2023/08/05 06:17:50;;;;;;;;;;;19.10;54.60;;;;;;5094698;28;19967;-54
2023/08/05 06:20:18;;;;;;;;;;;19.00;60.50;;;;;;5094389;28;20011;-54
2023/08/05 06:22:47;;;;;;;;;;;19.00;62.00;;;;;;5095197;28;19924;-53
2023/08/05 06:25:14;;;;;;;;;;;18.90;61.10;;;;;;5095179;28;20389;-53
2023/08/05 06:27:41;;;;;;;;;;;18.90;60.70;;;;;;5087677;28;20014;-55
2023/08/05 06:30:08;;;;;;;;;;;18.90;60.80;;;;;;5086890;28;20423;-53
2023/08/05 06:32:35;;;;;;;;;;;18.90;58.00;;;;;;5077197;28;20043;-53
2023/08/05 06:35:02;;;;;;;;;;;18.90;55.20;;;;;;5074493;28;20379;-55
2023/08/05 06:37:29;;;;;;;;;;;18.90;57.60;;;;;;5074488;28;19924;-57
2023/08/05 06:39:56;;;;;;;;;;;18.80;59.70;;;;;;5073422;28;19924;-55
2023/08/05 06:42:24;;;;;;;;;;;18.80;60.80;;;;;;5074181;28;19925;-56
2023/08/05 06:44:51;;;;;;;;;;;18.80;59.10;;;;;;5073823;28;19968;-52
2023/08/05 06:47:18;;;;;;;;;;;18.80;60.10;;;;;;5073949;28;19975;-52
2023/08/05 06:49:45;;;;;;;;;;;18.80;60.40;;;;;;5074265;28;20438;-54
2023/08/05 06:52:12;;;;;;;;;;;18.80;61.20;;;;;;5072709;28;19982;-54
2023/08/05 06:54:39;;;;;;;;;;;18.90;56.20;;;;;;5073263;28;20006;-54
2023/08/05 06:57:06;;;;;;;;;;;18.90;59.30;;;;;;5073899;28;20430;-54
2023/08/05 06:59:33;;;;;;;;;;;18.90;58.50;;;;;;5073926;28;19928;-54
2023/08/05 07:02:00;;;;;;;;;;;18.90;56.70;;;;;;5073416;28;19931;-53
2023/08/05 07:04:28;;;;;;;;;;;18.90;56.90;;;;;;5073798;28;19931;-53
2023/08/05 07:06:55;;;;;;;;;;;18.90;58.10;;;;;;5073985;28;19924;-53
2023/08/05 07:09:21;;;;;;;;;;;18.90;60.90;;;;;;5072961;28;19935;-51
2023/08/05 07:11:48;;;;;;;;;;;18.90;61.60;;;;;;5071990;28;20015;-51
2023/08/05 07:14:16;;;;;;;;;;;18.90;59.10;;;;;;5072391;28;19971;-54
2023/08/05 07:16:43;;;;;;;;;;;18.90;61.20;;;;;;5073843;28;19925;-54
2023/08/05 07:19:09;;;;;;;;;;;18.90;59.40;;;;;;5073734;28;20003;-53
2023/08/05 07:21:37;;;;;;;;;;;18.90;62.00;;;;;;5073154;28;19924;-52
2023/08/05 07:24:04;;;;;;;;;;;18.80;62.00;;;;;;5073551;28;19925;-53
2023/08/05 07:26:31;;;;;;;;;;;18.80;62.20;;;;;;5072397;28;20027;-52
2023/08/05 07:28:58;;;;;;;;;;;18.90;59.20;;;;;;5073437;28;20412;-52
2023/08/05 07:31:25;;;;;;;;;;;18.80;61.70;;;;;;5072902;28;19953;-55
2023/08/05 07:33:52;;;;;;;;;;;18.80;62.50;;;;;;5073434;28;20388;-55
2023/08/05 07:36:22;;;;;;;;;;;18.80;62.10;;;;;;5073581;28;19956;-54
2023/08/05 07:38:51;;;;;;;;;;;18.90;61.40;;;;;;5073364;28;20385;-50
2023/08/05 07:41:20;;;;;;;;;;;18.90;61.40;;;;;;5073118;28;19970;-55
2023/08/05 07:43:47;;;;;;;;;;;18.90;62.10;;;;;;5074096;28;19924;-52
2023/08/05 07:46:15;;;;;;;;;;;18.90;60.60;;;;;;5073168;28;20339;-54
2023/08/05 07:48:45;;;;;;;;;;;18.90;59.60;;;;;;5073316;28;20389;-54
2023/08/05 07:51:12;;;;;;;;;;;18.90;59.70;;;;;;5072997;28;19928;-54
2023/08/05 07:53:39;;;;;;;;;;;18.90;61.30;;;;;;5073524;28;19925;-53
2023/08/05 07:56:10;;;;;;;;;;;18.80;61.90;;;;;;5073145;28;19925;-52
2023/08/05 07:58:42;;;;;;;;;;;18.80;60.50;;;;;;5072331;28;19986;-54
2023/08/05 08:01:11;;;;;;;;;;;18.80;62.10;;;;;;5073490;28;19924;-54
2023/08/05 08:03:40;;;;;;;;;;;18.70;61.20;;;;;;5073619;28;19925;-54
2023/08/05 08:06:07;;;;;;;;;;;18.80;61.80;;;;;;5073350;28;20019;-54
2023/08/05 08:08:34;;;;;;;;;;;18.80;62.50;;;;;;5073488;28;20035;-53
2023/08/05 08:11:01;;;;;;;;;;;18.80;60.80;;;;;;5072614;28;19972;-54
2023/08/05 08:13:28;;;;;;;;;;;18.80;62.50;;;;;;5073098;28;19925;-55
2023/08/05 08:15:55;;;;;;;;;;;18.80;63.10;;;;;;5073096;28;20447;-55
2023/08/05 08:18:22;;;;;;;;;;;18.80;62.60;;;;;;5071853;28;19932;-55
2023/08/05 08:20:50;;;;;;;;;;;18.90;62.60;;;;;;5074975;28;19976;-54
2023/08/05 08:23:17;;;;;;;;;;;18.90;62.00;;;;;;5077277;28;19924;-54
2023/08/05 08:25:44;;;;;;;;;;;18.90;60.60;;;;;;5077143;28;19925;-55
2023/08/05 08:28:11;;;;;;;;;;;18.90;62.20;;;;;;5076676;28;19978;-52
2023/08/05 08:30:38;;;;;;;;;;;18.90;62.30;;;;;;5076950;28;19970;-54
2023/08/05 08:33:04;;;;;;;;;;;18.90;61.90;;;;;;5076654;28;19925;-55
2023/08/05 08:35:32;;;;;;;;;;;18.90;63.00;;;;;;5076539;28;19925;-52
2023/08/05 08:37:59;;;;;;;;;;;18.90;61.40;;;;;;5076851;28;19928;-50
2023/08/05 08:40:26;;;;;;;;;;;18.90;62.30;;;;;;5076029;28;19967;-48
2023/08/05 08:42:53;;;;;;;;;;;18.90;61.20;;;;;;5076908;28;19934;-52
2023/08/05 08:45:21;;;;;;;;;;;19.00;61.80;;;;;;5076608;28;19925;-54
2023/08/05 08:47:48;;;;;;;;;;;19.00;62.10;;;;;;5076622;28;19924;-49
2023/08/05 08:50:16;;;;;;;;;;;19.00;62.40;;;;;;5075940;28;20015;-50
2023/08/05 08:52:44;;;;;;;;;;;19.00;61.90;;;;;;5076252;28;20438;-52
2023/08/05 08:55:13;;;;;;;;;;;19.00;60.10;;;;;;5076252;28;19970;-51
2023/08/05 08:57:40;;;;;;;;;;;19.00;61.50;;;;;;5076220;28;19924;-50
2023/08/05 09:00:07;;;;;;;;;;;19.10;60.50;;;;;;5076000;28;20019;-48
2023/08/05 09:02:35;;;;;;;;;;;19.10;62.50;;;;;;5076120;28;19924;-48
2023/08/05 09:05:02;;;;;;;;;;;19.10;61.70;;;;;;5076327;28;20323;-49
2023/08/05 09:07:29;;;;;;;;;;;19.10;62.00;;;;;;5075963;28;19978;-48
2023/08/05 09:10:02;;;;;;;;;;;19.10;61.80;;;;;;5075925;28;19932;-51
2023/08/05 09:12:31;;;;;;;;;;;19.10;61.80;;;;;;5075906;28;20434;-52
2023/08/05 09:14:58;;;;;;;;;;;19.20;61.50;;;;;;5075528;28;19924;-50
2023/08/05 09:17:26;;;;;;;;;;;19.20;62.50;;;;;;5075915;28;20018;-49
2023/08/05 09:19:54;;;;;;;;;;;19.20;62.20;;;;;;5075811;28;20323;-52
2023/08/05 09:22:21;;;;;;;;;;;19.20;60.40;;;;;;5075589;28;19924;-51
2023/08/05 09:24:47;;;;;;;;;;;19.20;62.20;;;;;;5075698;28;19925;-50
2023/08/05 09:27:14;;;;;;;;;;;19.30;61.70;;;;;;5075968;28;19925;-49
2023/08/05 09:29:41;;;;;;;;;;;19.30;61.70;;;;;;5075425;28;19978;-51
2023/08/05 09:32:11;;;;;;;;;;;19.30;62.80;;;;;;5073699;28;19931;-53
2023/08/05 09:34:41;;;;;;;;;;;19.30;62.30;;;;;;5094264;28;19923;-50
2023/08/05 09:37:09;;;;;;;;;;;19.30;62.00;;;;;;5075218;28;19970;-53
2023/08/05 09:39:47;;;;;;;;;;;19.30;62.20;;;;;;5078168;28;20015;-56
2023/08/05 09:42:19;;;;;;;;;;;19.30;63.10;;;;;;5084908;28;19924;-53
2023/08/05 09:44:47;;;;;;;;;;;19.40;62.30;;;;;;5095760;28;19928;-53
2023/08/05 09:47:20;;;;;;;;;;;19.40;62.80;;;;;;5091725;28;20395;-52
2023/08/05 09:49:49;;;;;;;;;;;19.40;61.30;;;;;;5075122;28;20476;-54
2023/08/05 09:52:17;;;;;;;;;;;19.40;62.70;;;;;;5074834;28;20023;-55
2023/08/05 09:54:50;;;;;;;;;;;19.40;61.40;;;;;;5075252;28;19971;-54
2023/08/05 09:57:19;;;;;;;;;;;19.50;62.10;;;;;;5076791;28;19978;-55
2023/08/05 09:59:47;;;;;;;;;;;19.50;63.20;;;;;;5095042;28;19946;-54
2023/08/05 10:02:18;;;;;;;;;;;19.50;62.40;;;;;;5095455;28;19970;-53
2023/08/05 10:04:46;;;;;;;;;;;19.50;63.00;;;;;;5095454;28;19928;-53
2023/08/05 10:07:14;;;;;;;;;;;19.50;62.50;;;;;;5095110;28;19928;-53
2023/08/05 10:09:41;;;;;;;;;;;19.60;63.10;;;;;;5078076;28;20015;-52
2023/08/05 10:12:08;;;;;;;;;;;19.50;63.30;;;;;;5095004;28;19924;-55
2023/08/05 10:14:35;;;;;;;;;;;19.60;62.80;;;;;;5094707;28;20420;-54
2023/08/05 10:17:04;;;;;;;;;;;19.50;63.10;;;;;;5094886;28;20437;-50
2023/08/05 10:19:31;;;;;;;;;;;19.50;63.50;;;;;;5094899;28;20015;-53
2023/08/05 10:22:09;;;;;;;;;;;19.50;63.40;;;;;;5094754;28;19924;-56
2023/08/05 10:24:53;;;;;;;;;;;19.50;63.40;;;;;;5085756;28;20015;-54
2023/08/05 10:27:35;;;;;;;;;;;19.50;64.00;;;;;;5074426;28;19924;-49
2023/08/05 10:30:06;;;;;;;;;;;19.50;63.20;;;;;;5073626;28;19994;-52
2023/08/05 10:32:35;;;;;;;;;;;19.40;62.40;;;;;;5074715;28;19982;-52
2023/08/05 10:35:22;;;;;;;;;;;19.40;63.60;;;;;;5074105;28;19932;-49
2023/08/05 10:37:49;;;;;;;;;;;19.40;62.50;;;;;;5074284;28;19998;-50
2023/08/05 10:40:36;;;;;;;;;;;19.40;62.60;;;;;;5091713;28;19924;-50
2023/08/05 10:43:04;;;;;;;;;;;19.40;62.00;;;;;;5094465;28;19927;-53
2023/08/05 10:45:34;;;;;;;;;;;19.30;62.80;;;;;;5094430;28;20344;-50
2023/08/05 10:48:09;;;;;;;;;;;19.30;64.10;;;;;;5094342;28;19924;-57
2023/08/05 10:50:37;;;;;;;;;;;19.30;63.10;;;;;;5094077;28;19954;-51
2023/08/05 10:53:06;;;;;;;;;;;19.30;61.90;;;;;;5094040;28;19946;-54
2023/08/05 10:55:47;;;;;;;;;;;19.40;62.50;;;;;;5092974;28;20038;-50
2023/08/05 10:58:15;;;;;;;;;;;19.40;63.30;;;;;;5094554;28;19924;-54
2023/08/05 11:00:42;;;;;;;;;;;19.40;62.80;;;;;;5093522;28;19924;-49
2023/08/05 11:03:29;;;;;;;;;;;19.40;61.50;;;;;;5094707;28;20374;-51
2023/08/05 11:06:00;;;;;;;;;;;19.50;62.10;;;;;;5093691;28;19924;-49
2023/08/05 11:08:27;;;;;;;;;;;19.50;63.00;;;;;;5075767;28;19928;-49
2023/08/05 11:10:54;;;;;;;;;;;19.50;62.10;;;;;;5073523;28;20337;-50
2023/08/05 11:13:21;;;;;;;;;;;19.60;62.00;;;;;;5086005;28;20273;-48
2023/08/05 11:16:01;;;;;;;;;;;19.60;63.20;;;;;;5093155;28;20141;-49
2023/08/05 11:18:28;;;;;;;;;;;19.60;62.70;;;;;;5093421;28;19924;-50
2023/08/05 11:20:57;;;;;;;;;;;19.60;62.30;;;;;;5093219;28;19970;-48
2023/08/05 11:23:24;;;;;;;;;;;19.60;61.70;;;;;;5093868;28;20491;-49
2023/08/05 11:25:54;;;;;;;;;;;19.60;61.50;;;;;;5073564;28;19975;-54
2023/08/05 11:28:21;;;;;;;;;;;19.60;62.00;;;;;;5076129;28;19946;-49
2023/08/05 11:30:48;;;;;;;;;;;19.50;63.20;;;;;;5079135;28;20408;-51
2023/08/05 11:33:15;;;;;;;;;;;19.50;63.30;;;;;;5073788;28;20311;-49
2023/08/05 11:35:44;;;;;;;;;;;19.60;62.50;;;;;;5073454;28;20409;-51
2023/08/05 11:38:14;;;;;;;;;;;19.60;63.30;;;;;;5072220;28;19955;-51
2023/08/05 11:40:45;;;;;;;;;;;19.60;63.10;;;;;;5072837;28;20011;-50
2023/08/05 11:43:16;;;;;;;;;;;19.60;63.10;;;;;;5072491;28;19975;-51
2023/08/05 11:45:44;;;;;;;;;;;19.60;62.90;;;;;;5073134;28;20015;-50
2023/08/05 11:48:22;;;;;;;;;;;19.60;63.40;;;;;;5072487;28;20338;-48
2023/08/05 11:50:49;;;;;;;;;;;19.60;63.40;;;;;;5072806;28;20007;-52
2023/08/05 11:53:17;;;;;;;;;;;19.60;64.00;;;;;;5073314;28;20019;-49
2023/08/05 11:55:46;;;;;;;;;;;19.60;64.10;;;;;;5075738;28;19924;-51
2023/08/05 11:58:13;;;;;;;;;;;19.70;62.90;;;;;;5077348;28;19963;-54
2023/08/05 12:00:45;;;;;;;;;;;19.70;64.00;;;;;;5077602;28;19924;-49
2023/08/05 12:03:13;;;;;;;;;;;19.70;64.00;;;;;;5077372;28;19970;-50
2023/08/05 12:05:41;;;;;;;;;;;19.70;63.60;;;;;;5077123;28;19932;-50
2023/08/05 12:08:09;;;;;;;;;;;19.80;63.40;;;;;;5077395;28;19924;-50
2023/08/05 12:10:36;;;;;;;;;;;19.90;63.40;;;;;;5077454;28;20292;-50
2023/08/05 12:13:04;;;;;;;;;;;19.90;60.90;;;;;;5077105;28;19928;-51
2023/08/05 12:15:31;;;;;;;;;;;20.00;61.90;;;;;;5077201;28;19969;-52
2023/08/05 12:17:59;;;;;;;;;;;20.00;62.10;;;;;;5077345;28;19925;-50
2023/08/05 12:20:31;;;;;;;;;;;20.10;60.30;;;;;;5076419;28;20006;-50
2023/08/05 12:23:01;;;;;;;;;;;20.10;60.00;;;;;;5086987;28;19978;-49
2023/08/05 12:25:29;;;;;;;;;;;20.10;62.20;;;;;;5096477;28;19928;-50
2023/08/05 12:27:57;;;;;;;;;;;20.20;61.90;;;;;;5097143;28;19928;-51
2023/08/05 12:30:24;;;;;;;;;;;20.20;61.90;;;;;;5097431;28;19962;-53
2023/08/05 12:32:52;;;;;;;;;;;20.20;59.60;;;;;;5096679;28;20023;-50
2023/08/05 12:35:20;;;;;;;;;;;20.30;60.80;;;;;;5096751;28;20331;-53
2023/08/05 12:37:47;;;;;;;;;;;20.30;62.80;;;;;;5096913;28;19924;-49
2023/08/05 12:40:14;;;;;;;;;;;20.30;60.10;;;;;;5096876;28;19924;-50
2023/08/05 12:42:41;;;;;;;;;;;20.40;60.10;;;;;;5081841;28;20293;-54
2023/08/05 12:45:08;;;;;;;;;;;20.40;59.90;;;;;;5081427;28;19932;-49
2023/08/05 12:47:38;;;;;;;;;;;20.40;59.80;;;;;;5081856;28;19936;-49
2023/08/05 12:50:06;;;;;;;;;;;20.40;59.40;;;;;;5081960;28;20006;-51
2023/08/05 12:52:33;;;;;;;;;;;20.40;61.10;;;;;;5096179;28;19924;-51
2023/08/05 12:55:01;;;;;;;;;;;20.40;60.50;;;;;;5096802;28;20292;-53
2023/08/05 12:57:28;;;;;;;;;;;20.40;62.60;;;;;;5096480;28;20433;-49
2023/08/05 12:59:55;;;;;;;;;;;20.50;60.30;;;;;;5095524;28;19978;-52
2023/08/05 13:02:23;;;;;;;;;;;20.40;60.00;;;;;;5096657;28;19924;-50
2023/08/05 13:04:54;;;;;;;;;;;20.40;60.40;;;;;;5096439;28;20295;-54
2023/08/05 13:07:21;;;;;;;;;;;20.40;61.80;;;;;;5095411;28;19928;-51
2023/08/05 13:09:48;;;;;;;;;;;20.40;60.50;;;;;;5096188;28;19924;-49
2023/08/05 13:12:15;;;;;;;;;;;20.40;61.00;;;;;;5095965;28;20395;-53
2023/08/05 13:14:43;;;;;;;;;;;20.40;59.10;;;;;;5095863;28;19969;-50
2023/08/05 13:17:10;;;;;;;;;;;20.40;59.80;;;;;;5096130;28;20392;-51
2023/08/05 13:19:37;;;;;;;;;;;20.40;60.50;;;;;;5095498;28;19928;-50
2023/08/05 13:22:05;;;;;;;;;;;20.40;62.10;;;;;;5095825;28;19928;-51
2023/08/05 13:24:33;;;;;;;;;;;20.50;60.50;;;;;;5095997;28;20407;-50
2023/08/05 13:27:01;;;;;;;;;;;20.40;60.10;;;;;;5095957;28;19924;-52
2023/08/05 13:29:28;;;;;;;;;;;20.50;59.70;;;;;;5096085;28;19924;-51
2023/08/05 13:31:55;;;;;;;;;;;20.50;59.60;;;;;;5096292;28;20002;-54
2023/08/05 13:34:22;;;;;;;;;;;20.50;60.70;;;;;;5095646;28;19974;-52
2023/08/05 13:36:50;;;;;;;;;;;20.50;60.30;;;;;;5095740;28;19931;-52
2023/08/05 13:39:17;;;;;;;;;;;20.50;61.40;;;;;;5095758;28;19970;-50
2023/08/05 13:41:44;;;;;;;;;;;20.50;61.20;;;;;;5095613;28;19932;-52
2023/08/05 13:44:11;;;;;;;;;;;20.50;59.80;;;;;;5095962;28;19928;-51
2023/08/05 13:46:38;;;;;;;;;;;20.40;60.00;;;;;;5095560;28;19924;-54
2023/08/05 13:49:05;;;;;;;;;;;20.40;59.90;;;;;;5095391;28;19935;-50
2023/08/05 13:51:32;;;;;;;;;;;20.40;61.70;;;;;;5095562;28;19931;-52
2023/08/05 13:53:59;;;;;;;;;;;20.40;60.10;;;;;;5095658;28;19967;-49
2023/08/05 13:56:26;;;;;;;;;;;20.40;61.60;;;;;;5095190;28;19931;-51
2023/08/05 13:58:53;;;;;;;;;;;20.40;60.90;;;;;;5095510;28;19947;-49
2023/08/05 14:01:20;;;;;;;;;;;20.30;60.20;;;;;;5095013;28;20018;-54
2023/08/05 14:03:49;;;;;;;;;;;20.30;59.80;;;;;;5095306;28;19977;-48
2023/08/05 14:06:17;;;;;;;;;;;20.40;67.30;;;;;;5095456;28;19928;-49
2023/08/05 14:08:44;;;;;;;;;;;20.60;75.20;;;;;;5095115;28;19974;-52
2023/08/05 14:11:13;;;;;;;;;;;20.80;78.70;;;;;;5095112;28;20008;-50
2023/08/05 14:13:41;;;;;;;;;;;21.20;80.50;;;;;;5095101;28;19990;-52
2023/08/05 14:16:08;;;;;;;;;;;21.50;80.90;;;;;;5095086;28;19973;-51
2023/08/05 14:18:35;;;;;;;;;;;21.70;80.40;;;;;;5095039;28;19950;-56
2023/08/05 14:21:02;;;;;;;;;;;22.00;80.10;;;;;;5095154;28;19924;-49